Gambler — LELC — position and weather

sailwx.info

Track history (hours):
 
Tides and Currents Weather Stations Pressure Air Temp Water Temp Dewpoint Dewpoint Depression Visibility Wind Speed Wind Dir Waves Ship Positions

Gambler

Last reported at 2016-Jun-18 15:13 UTC. Time now 2016-Jun-28 06:02 UTC.
Position N 61°45' E 004°59'.
Warning: this ship's position is 9 days out of date.

Length 70 m.

Type: Fishing. MMSI: 258412000.

Date/timePositionNaut miles runAvg speedWind from/ knotsBaromVisibWave heightAir tempDewpointWater temp
2016-Jun-18 15:13N 61°45' E 004°59'10 9.3
2016-Jun-18 14:06N 61°52' E 005°14'5 8.9
2016-Jun-18 13:33N 61°56' E 005°07'0 0.1
2016-Jun-18 12:33N 61°56' E 005°07'0 0.0
2016-Jun-18 11:34N 61°56' E 005°07'0 0.0
2016-Jun-18 10:33N 61°56' E 005°07'0 0.0
2016-Jun-18 09:34N 61°56' E 005°07'0 0.0
2016-Jun-18 08:33N 61°56' E 005°07'0 0.0
2016-Jun-18 07:33N 61°56' E 005°07'0 0.0
2016-Jun-18 06:34N 61°56' E 005°07'0 0.0
2016-Jun-18 05:33N 61°56' E 005°07'0 0.0
2016-Jun-18 04:34N 61°56' E 005°07'0 0.0
2016-Jun-18 03:34N 61°56' E 005°07'0 0.0
2016-Jun-18 02:33N 61°56' E 005°07'0 0.0
2016-Jun-18 01:33N 61°56' E 005°07'0 0.0
2016-Jun-18 00:33N 61°56' E 005°07'0 0.0
2016-Jun-17 23:34N 61°56' E 005°07'0 0.0
2016-Jun-17 22:33N 61°56' E 005°07'0 0.0
2016-Jun-17 21:34N 61°56' E 005°07'0 0.0
2016-Jun-17 20:34N 61°56' E 005°07'0 0.0
2016-Jun-17 19:33N 61°56' E 005°07'0 0.0
2016-Jun-17 18:34N 61°56' E 005°07'0 0.0
2016-Jun-17 17:34N 61°56' E 005°07'0 0.0
2016-Jun-17 16:34N 61°56' E 005°07'0 0.0
2016-Jun-17 15:34N 61°56' E 005°07'0 0.0
2016-Jun-17 14:33N 61°56' E 005°07'0 0.0
2016-Jun-17 13:33N 61°56' E 005°07'0 0.0
2016-Jun-17 12:34N 61°56' E 005°07'0 0.0
2016-Jun-17 11:34N 61°56' E 005°07'0 0.0
2016-Jun-17 10:33N 61°56' E 005°07'0 0.0
2016-Jun-17 09:34N 61°56' E 005°07'0 0.0
2016-Jun-17 08:33N 61°56' E 005°07'0 0.0
2016-Jun-17 07:34N 61°56' E 005°07'0 0.0
2016-Jun-17 06:34N 61°56' E 005°07'0 0.0
2016-Jun-17 05:33N 61°56' E 005°07'0 0.0
2016-Jun-17 04:33N 61°56' E 005°07'0 0.0
2016-Jun-17 03:34N 61°56' E 005°07'0 0.0
2016-Jun-17 02:33N 61°56' E 005°07'0 0.0
2016-Jun-17 01:33N 61°56' E 005°07'0 0.0
2016-Jun-17 00:34N 61°56' E 005°07'0 0.0
2016-Jun-16 23:33N 61°56' E 005°07'0 0.0
2016-Jun-16 22:33N 61°56' E 005°07'19 1.0
2016-Jun-16 02:34N 62°15' E 005°11'1010.3
2016-Jun-16 01:33N 62°23' E 005°27'6 5.9
2016-Jun-16 00:34N 62°20' E 005°38'0 0.0
2016-Jun-15 23:33N 62°20' E 005°38'0 0.0
2016-Jun-15 22:34N 62°20' E 005°38'0 0.0
2016-Jun-15 21:34N 62°20' E 005°38'0 0.0
2016-Jun-15 20:33N 62°20' E 005°38'0 0.0
2016-Jun-15 19:17N 62°20' E 005°38'0 0.0
2016-Jun-15 18:34N 62°20' E 005°38'0 0.0
2016-Jun-15 17:33N 62°20' E 005°38'0 0.0
2016-Jun-15 16:32N 62°20' E 005°38'  
2016-Jun-10 13:33N 59°30' E 002°31'9 9.2
2016-Jun-10 12:33N 59°37' E 002°21'1211.6
2016-Jun-10 11:33N 59°47' E 002°34'1010.5
2016-Jun-10 10:34N 59°56' E 002°22'9 8.5
2016-Jun-10 09:33N 59°50' E 002°09'  
Track history (hours):
 
Tides and Currents Weather Stations Pressure Air Temp Water Temp Dewpoint Dewpoint Depression Visibility Wind Speed Wind Dir Waves Ship Positions

Gambler

Last reported at 2016-Jun-18 15:13 UTC. Time now 2016-Jun-28 06:02 UTC.
Position N 61°45' E 004°59'.
Warning: this ship's position is 9 days out of date.

Length 70 m.

Type: Fishing. MMSI: 258412000.

Date/timePositionNaut miles runAvg speedWind from/ knotsBaromVisibWave heightAir tempDewpointWater temp
2016-Jun-18 15:13N 61°45' E 004°59'10 9.3
2016-Jun-18 14:06N 61°52' E 005°14'5 8.9
2016-Jun-18 13:33N 61°56' E 005°07'0 0.1
2016-Jun-18 12:33N 61°56' E 005°07'0 0.0
2016-Jun-18 11:34N 61°56' E 005°07'0 0.0
2016-Jun-18 10:33N 61°56' E 005°07'0 0.0
2016-Jun-18 09:34N 61°56' E 005°07'0 0.0
2016-Jun-18 08:33N 61°56' E 005°07'0 0.0
2016-Jun-18 07:33N 61°56' E 005°07'0 0.0
2016-Jun-18 06:34N 61°56' E 005°07'0 0.0
2016-Jun-18 05:33N 61°56' E 005°07'0 0.0
2016-Jun-18 04:34N 61°56' E 005°07'0 0.0
2016-Jun-18 03:34N 61°56' E 005°07'0 0.0
2016-Jun-18 02:33N 61°56' E 005°07'0 0.0
2016-Jun-18 01:33N 61°56' E 005°07'0 0.0
2016-Jun-18 00:33N 61°56' E 005°07'0 0.0
2016-Jun-17 23:34N 61°56' E 005°07'0 0.0
2016-Jun-17 22:33N 61°56' E 005°07'0 0.0
2016-Jun-17 21:34N 61°56' E 005°07'0 0.0
2016-Jun-17 20:34N 61°56' E 005°07'0 0.0
2016-Jun-17 19:33N 61°56' E 005°07'0 0.0
2016-Jun-17 18:34N 61°56' E 005°07'0 0.0
2016-Jun-17 17:34N 61°56' E 005°07'0 0.0
2016-Jun-17 16:34N 61°56' E 005°07'0 0.0
2016-Jun-17 15:34N 61°56' E 005°07'0 0.0
2016-Jun-17 14:33N 61°56' E 005°07'0 0.0
2016-Jun-17 13:33N 61°56' E 005°07'0 0.0
2016-Jun-17 12:34N 61°56' E 005°07'0 0.0
2016-Jun-17 11:34N 61°56' E 005°07'0 0.0
2016-Jun-17 10:33N 61°56' E 005°07'0 0.0
2016-Jun-17 09:34N 61°56' E 005°07'0 0.0
2016-Jun-17 08:33N 61°56' E 005°07'0 0.0
2016-Jun-17 07:34N 61°56' E 005°07'0 0.0
2016-Jun-17 06:34N 61°56' E 005°07'0 0.0
2016-Jun-17 05:33N 61°56' E 005°07'0 0.0
2016-Jun-17 04:33N 61°56' E 005°07'0 0.0
2016-Jun-17 03:34N 61°56' E 005°07'0 0.0
2016-Jun-17 02:33N 61°56' E 005°07'0 0.0
2016-Jun-17 01:33N 61°56' E 005°07'0 0.0
2016-Jun-17 00:34N 61°56' E 005°07'0 0.0
2016-Jun-16 23:33N 61°56' E 005°07'0 0.0
2016-Jun-16 22:33N 61°56' E 005°07'19 1.0
2016-Jun-16 02:34N 62°15' E 005°11'1010.3
2016-Jun-16 01:33N 62°23' E 005°27'6 5.9
2016-Jun-16 00:34N 62°20' E 005°38'0 0.0
2016-Jun-15 23:33N 62°20' E 005°38'0 0.0
2016-Jun-15 22:34N 62°20' E 005°38'0 0.0
2016-Jun-15 21:34N 62°20' E 005°38'0 0.0
2016-Jun-15 20:33N 62°20' E 005°38'0 0.0
2016-Jun-15 19:17N 62°20' E 005°38'0 0.0
2016-Jun-15 18:34N 62°20' E 005°38'0 0.0
2016-Jun-15 17:33N 62°20' E 005°38'0 0.0
2016-Jun-15 16:32N 62°20' E 005°38'  
2016-Jun-10 13:33N 59°30' E 002°31'9 9.2
2016-Jun-10 12:33N 59°37' E 002°21'1211.6
2016-Jun-10 11:33N 59°47' E 002°34'1010.5
2016-Jun-10 10:34N 59°56' E 002°22'9 8.5
2016-Jun-10 09:33N 59°50' E 002°09'  

Dump ship's entire track history